Nearby METAR Reports

 

KPMD - Palmdale, California, USA
Distance from station: NNE 12mi, 19km
Updated: Sun, 16-Jun-2019 11:53pm PDT
Clear
Clear
 Wind from SSW
Wind: SSW 9 mph , 15 km/h
Temperature: 66°F , 19°C
Dew Point: 50°F , 10°C
Humidity: 56%
Barometer: 29.85 inHg , 1010.8 hPa
Clouds: Clear
Visibility: 10 miles , 16 km
2019/06/17 06:53 KPMD 170653Z AUTO 20008KT 10SM CLR 19/10 A2985 RMK AO2 SLP080 T01940100
KWJF - Lancaster/Fox, California, USA
Distance from station: N 17mi, 27km
Updated: Sun, 16-Jun-2019 11:56pm PDT
Clear
Clear
 Wind from WSW
Wind: WSW 14 mph , 22 km/h
Temperature: 70°F , 21°C
Dew Point: 52°F , 11°C
Humidity: 53%
Barometer: 29.83 inHg , 1010.2 hPa
Clouds: Clear
Visibility: 10 miles , 16 km
2019/06/17 06:56 KWJF 170656Z AUTO 24012KT 10SM CLR 21/11 A2983 RMK AO2 SLP082 T02060111
 
KMWS - Mount Wilson, California, USA
Distance from station: SSE 18mi, 30km
Updated: Wed, 13-May-2015 6:45am PDT
NOT Current

 Wind from S
Wind: S 3 mph , 6 km/h, Gust: 5 mph , 7 km/h
Temperature: 43°F , 6°C
Dew Point: -0°F , -18°C
Humidity: 16%
2015/05/13 13:45 KMWS 131345Z 18003G04KT 06/M18 RMK SNOW DEPTH 1.00
KWHP - La / Whiteman, California, USA
Distance from station: SW 21mi, 34km
Updated: Sun, 16-Jun-2019 7:50pm PDT
NOT Current
Clear
Clear
 Wind from ESE
Wind: ESE 8 mph , 13 km/h
Temperature: 64°F , 18°C
Dew Point: 55°F , 13°C
Humidity: 73%
Barometer: 29.89 inHg , 1012.2 hPa
Clouds: Clear
Visibility: 10 miles , 16 km
2019/06/17 02:50 KWHP 170250Z 12007KT 10SM SKC 18/13 A2989 RMK LAST
 
KBUR - Burbank, California, USA
Distance from station: SSW 22mi, 35km
Updated: Mon, 17-Jun-2019 12:12am PDT
Overcast
Overcast
 Wind from SSW
Wind: SSW 7 mph , 11 km/h
Temperature: 63°F , 17°C
Dew Point: 57°F , 14°C
Humidity: 83%
Barometer: 29.88 inHg , 1011.9 hPa
Clouds: Overcast
Visibility: 10 miles , 16 km
Cloud details: Overcast 1500 ft
2019/06/17 07:12 KBUR 170712Z 20006KT 10SM OVC015 17/14 A2988 RMK AO2 T01670139
KVNY - Van Nuys, California, USA
Distance from station: SW 25mi, 40km
Updated: Sun, 16-Jun-2019 11:51pm PDT
Overcast
Overcast
 Wind from S
Wind: S 5 mph , 7 km/h
Temperature: 63°F , 17°C
Dew Point: 57°F , 14°C
Humidity: 83%
Barometer: 29.88 inHg , 1011.9 hPa
Clouds: Overcast
Visibility: 10 miles , 16 km
Cloud details: Overcast 1400 ft
2019/06/17 06:51 KVNY 170651Z AUTO 19004KT 10SM OVC014 17/14 A2988 RMK AO2 SLP112 T01670139
 
KEDW - Edwards Afb, California, USA
Distance from station: NNE 33mi, 53km
Updated: Sun, 16-Jun-2019 11:58pm PDT
Clear
Clear
 Wind from SSW
Wind: SSW 14 mph , 22 km/h
Temperature: 68°F , 20°C
Dew Point: 50°F , 10°C
Humidity: 53%
Barometer: 29.80 inHg , 1009.1 hPa
Clouds: Clear
Visibility: 10 miles , 16 km
2019/06/17 06:58 KEDW 170658Z AUTO 21012KT 10SM CLR 20/10 A2980 RMK AO2 SLP068 T02030104
KSMO - Santa Monica, California, USA
Distance from station: SSW 35mi, 57km
Updated: Sun, 16-Jun-2019 11:51pm PDT
Overcast
Overcast
 Wind from W
Wind: W 5 mph , 7 km/h
Temperature: 63°F , 17°C
Dew Point: 57°F , 14°C
Humidity: 83%
Barometer: 29.89 inHg , 1012.2 hPa
Clouds: Overcast
Visibility: 10 miles , 16 km
Cloud details: Overcast 1600 ft
2019/06/17 06:51 KSMO 170651Z AUTO 26004KT 10SM OVC016 17/14 A2989 RMK AO2 SLP122 T01720144
 
KLAX - Los Angeles, California, USA
Distance from station: SSW 39mi, 63km
Updated: Sun, 16-Jun-2019 11:53pm PDT
Overcast
Overcast
 Wind from WSW
Wind: WSW 8 mph , 13 km/h
Temperature: 63°F , 17°C
Dew Point: 55°F , 13°C
Humidity: 77%
Barometer: 29.89 inHg , 1012.2 hPa
Clouds: Overcast
Visibility: 10 miles , 16 km
Cloud details: Overcast 1600 ft
2019/06/17 06:53 KLAX 170653Z 24007KT 10SM OVC016 17/13 A2989 RMK AO2 SLP119 T01720133
KMHV - Mojave, California, USA
Distance from station: N 41mi, 66km
Updated: Mon, 17-Jun-2019 12:40am PDT
Clear
Clear
 Wind from NNW
Wind: NNW 15 mph , 24 km/h, Gust: 23 mph , 37 km/h
Temperature: 77°F , 25°C
Dew Point: 39°F , 4°C
Humidity: 26%
Barometer: 29.82 inHg , 1009.8 hPa
Clouds: Clear
Visibility: 10 miles , 16 km
2019/06/17 07:40 KMHV 170740Z AUTO 33013G20KT 10SM CLR 25/04 A2982 RMK A01
 
KFUL - Fullerton, California, USA
Distance from station: SSE 44mi, 70km
Updated: Sun, 16-Jun-2019 11:53pm PDT
Overcast
Overcast
 Wind from S
Wind: S 5 mph , 7 km/h
Temperature: 64°F , 18°C
Dew Point: 57°F , 14°C
Humidity: 78%
Barometer: 29.87 inHg , 1011.5 hPa
Clouds: Overcast
Visibility: 10 miles , 16 km
Cloud details: Overcast 1900 ft
2019/06/17 06:53 KFUL 170653Z AUTO 17004KT 10SM OVC019 18/14 A2987 RMK AO2 SLP115 T01830139
KONT - Ontario, California, USA
Distance from station: SE 45mi, 72km
Updated: Sun, 16-Jun-2019 11:53pm PDT
Overcast
Overcast
 Wind from WSW
Wind: WSW 8 mph , 13 km/h
Temperature: 66°F , 19°C
Dew Point: 63°F , 17°C
Humidity: 88%
Barometer: 29.88 inHg , 1011.9 hPa
Clouds: Overcast
Visibility: 10 miles , 16 km
Cloud details: Overcast 1400 ft
2019/06/17 06:53 KONT 170653Z 25007KT 10SM OVC014 19/17 A2988 RMK AO2 SLP107 T01940167
 
KLGB - Long Beach, California, USA
Distance from station: S 46mi, 74km
Updated: Sun, 16-Jun-2019 11:53pm PDT
Overcast
Overcast
 Wind from SSW
Wind: SSW 3 mph , 6 km/h
Temperature: 64°F , 18°C
Dew Point: 55°F , 13°C
Humidity: 73%
Barometer: 29.88 inHg , 1011.9 hPa
Clouds: Overcast
Visibility: 10 miles , 16 km
Cloud details: Overcast 1800 ft
2019/06/17 06:53 KLGB 170653Z AUTO 21003KT 10SM OVC018 18/13 A2988 RMK AO2 SLP119 T01780133
KVCV - Victorville, California, USA
Distance from station: E 46mi, 74km
Updated: Sun, 16-Jun-2019 7:45pm PDT
NOT Current
Clear
Clear
 Wind from S
Wind: S 16 mph , 26 km/h
Barometer: 29.82 inHg , 1009.8 hPa
Clouds: Clear
Visibility: 10 miles , 16 km
2019/06/17 02:45 KVCV 170245Z 17014KT 10SM SKC A2982
 
KTSP - Tehachapi, California, USA
Distance from station: NNW 48mi, 77km
Updated: Mon, 17-Jun-2019 12:35am PDT
Clear
Clear
 Wind from NW
Wind: NW 5 mph , 7 km/h
Temperature: 57°F , 14°C
Dew Point: 46°F , 8°C
Humidity: 67%
Barometer: 29.96 inHg , 1014.6 hPa
Clouds: Clear
Visibility: 10 miles , 16 km
2019/06/17 07:35 KTSP 170735Z AUTO 31004KT 10SM CLR 14/08 A2996 RMK AO2